createdAt,value
2022-08-11T00:02:00.902Z,97569.13
2022-08-11T00:04:34.581Z,97564.25
2022-08-11T00:07:04.277Z,97562.88
2022-08-11T00:09:40.167Z,97559.69
2022-08-11T00:12:15.287Z,97563.06
2022-08-11T00:14:43.352Z,97564.72
2022-08-11T00:17:13.995Z,97556.50
2022-08-11T00:20:12.931Z,97559.41
2022-08-11T00:22:32.360Z,97565.00
2022-08-11T00:25:08.972Z,97556.31
2022-08-11T00:27:38.131Z,97559.09
2022-08-11T00:30:07.624Z,97559.53
2022-08-11T00:32:35.236Z,97552.53
2022-08-11T00:35:54.181Z,97556.75
2022-08-11T00:37:54.226Z,97558.19
2022-08-11T00:40:33.760Z,97558.19
2022-08-11T00:43:20.212Z,97558.19
2022-08-11T00:46:25.586Z,97563.81
2022-08-11T00:49:07.027Z,97565.22
2022-08-11T00:52:04.481Z,97564.63
2022-08-11T00:54:47.908Z,97561.16
2022-08-11T00:57:37.376Z,97564.88
2022-08-11T01:00:15.198Z,97557.47
2022-08-11T01:02:47.558Z,97565.59
2022-08-11T01:05:28.993Z,97558.88
2022-08-11T01:08:33.116Z,97553.16
2022-08-11T01:11:26.634Z,97555.69
2022-08-11T01:14:11.896Z,97550.22
2022-08-11T01:16:47.362Z,97558.03
2022-08-11T01:20:44.809Z,97554.13
2022-08-11T01:23:02.825Z,97556.50
2022-08-11T01:25:56.856Z,97552.59
2022-08-11T01:28:56.367Z,97555.09
2022-08-11T01:32:01.811Z,97551.72
2022-08-11T01:34:43.292Z,97550.88
2022-08-11T01:37:29.531Z,97554.78
2022-08-11T01:40:17.370Z,97553.09
2022-08-11T01:43:36.590Z,97545.25
2022-08-11T01:46:21.293Z,97544.25
2022-08-11T01:50:08.549Z,97545.94
2022-08-11T01:52:33.660Z,97541.16
2022-08-11T01:55:38.118Z,97540.72
2022-08-11T01:58:07.536Z,97544.75
2022-08-11T02:00:48.654Z,97540.72
2022-08-11T02:03:37.515Z,97534.69
2022-08-11T02:06:44.457Z,97533.53
2022-08-11T02:09:49.826Z,97535.66
2022-08-11T02:12:22.768Z,97537.06
2022-08-11T02:15:05.013Z,97533.00
2022-08-11T02:18:17.234Z,97535.06
2022-08-11T02:21:14.972Z,97533.63
2022-08-11T02:24:04.938Z,97536.84
2022-08-11T02:26:46.864Z,97533.38
2022-08-11T02:29:25.226Z,97537.66
2022-08-11T02:32:31.294Z,97539.38
2022-08-11T02:35:19.228Z,97527.44
2022-08-11T02:38:03.754Z,97524.13
2022-08-11T02:40:42.708Z,97523.09
2022-08-11T02:43:22.174Z,97519.03
2022-08-11T02:46:19.038Z,97521.13
2022-08-11T02:49:16.773Z,97512.69
2022-08-11T02:52:05.948Z,97520.34
2022-08-11T02:54:38.410Z,97518.28
2022-08-11T02:57:32.825Z,97516.78
2022-08-11T03:00:07.832Z,97516.91
2022-08-11T03:02:55.028Z,97528.16
2022-08-11T03:05:53.898Z,97518.09
2022-08-11T03:09:01.708Z,97523.63
2022-08-11T03:12:14.687Z,97521.38
2022-08-11T03:15:18.678Z,97523.25
2022-08-11T03:17:53.814Z,97515.00
2022-08-11T03:20:23.336Z,97524.69
2022-08-11T03:22:59.005Z,97523.34
2022-08-11T03:25:34.714Z,97516.63
2022-08-11T03:28:49.434Z,97524.81
2022-08-11T03:31:37.062Z,97523.13
2022-08-11T03:34:09.189Z,97523.69
2022-08-11T03:36:54.536Z,97527.44
2022-08-11T03:39:40.215Z,97527.91
2022-08-11T03:42:47.036Z,97523.00
2022-08-11T03:45:19.494Z,97528.28
2022-08-11T03:48:07.075Z,97524.94
2022-08-11T03:50:55.142Z,97532.16
2022-08-11T03:53:28.303Z,97530.00
2022-08-11T03:56:22.973Z,97525.41
2022-08-11T03:59:08.586Z,97529.53
2022-08-11T04:01:41.074Z,97529.06
2022-08-11T04:04:51.315Z,97522.53
2022-08-11T04:07:47.153Z,97515.59
2022-08-11T04:10:38.501Z,97520.41
2022-08-11T04:13:28.102Z,97520.16
2022-08-11T04:16:16.593Z,97510.69
2022-08-11T04:18:49.304Z,97524.28
2022-08-11T04:21:47.586Z,97522.00
2022-08-11T04:24:51.309Z,97516.81
2022-08-11T04:27:41.067Z,97515.72
2022-08-11T04:30:20.728Z,97521.13
2022-08-11T04:33:03.578Z,97524.97
2022-08-11T04:35:48.674Z,97526.34
2022-08-11T04:38:38.148Z,97522.44
2022-08-11T04:41:32.177Z,97517.56
2022-08-11T04:44:26.306Z,97519.34
2022-08-11T04:48:02.028Z,97518.44
2022-08-11T04:51:16.895Z,97519.03
2022-08-11T04:54:36.546Z,97520.56
2022-08-11T04:57:42.037Z,97511.59
2022-08-11T05:00:30.257Z,97512.94
2022-08-11T05:03:15.273Z,97515.94
2022-08-11T05:05:57.202Z,97509.25
2022-08-11T05:08:41.134Z,97514.88
2022-08-11T05:11:22.728Z,97515.72
2022-08-11T05:14:24.944Z,97517.16
2022-08-11T05:17:15.852Z,97506.94
2022-08-11T05:20:11.831Z,97510.28
2022-08-11T05:23:06.146Z,97514.53
2022-08-11T05:26:43.780Z,97508.72
2022-08-11T05:29:19.910Z,97511.03
2022-08-11T05:32:14.954Z,97511.78
2022-08-11T05:34:54.098Z,97515.34
2022-08-11T05:37:33.532Z,97515.78
2022-08-11T05:40:33.056Z,97514.59
2022-08-11T05:43:31.093Z,97513.44
2022-08-11T05:46:19.280Z,97510.38
2022-08-11T05:49:06.030Z,97521.09
2022-08-11T05:52:05.608Z,97512.91
2022-08-11T05:55:06.369Z,97519.06
2022-08-11T05:57:43.866Z,97524.50
2022-08-11T06:00:19.651Z,97525.38
2022-08-11T06:02:51.123Z,97521.13
2022-08-11T06:05:19.487Z,97523.19
2022-08-11T06:07:49.274Z,97520.84
2022-08-11T06:10:27.776Z,97534.63
2022-08-11T06:12:56.001Z,97524.56
2022-08-11T06:15:23.412Z,97524.34
2022-08-11T06:17:51.383Z,97524.88
2022-08-11T06:20:19.651Z,97524.94
2022-08-11T06:22:55.204Z,97529.97
2022-08-11T06:25:30.198Z,97527.44
2022-08-11T06:27:57.416Z,97532.88
2022-08-11T06:30:35.285Z,97530.06
2022-08-11T06:33:04.309Z,97526.53
2022-08-11T06:35:46.137Z,97530.03
2022-08-11T06:38:26.483Z,97536.25
2022-08-11T06:41:31.694Z,97529.25
2022-08-11T06:44:13.502Z,97528.34
2022-08-11T06:46:47.620Z,97534.84
2022-08-11T06:49:35.359Z,97532.31
2022-08-11T06:52:04.960Z,97524.41
2022-08-11T06:54:36.321Z,97530.06
2022-08-11T06:57:31.916Z,97524.63
2022-08-11T07:00:17.959Z,97538.34
2022-08-11T07:03:11.509Z,97530.31
2022-08-11T07:05:38.156Z,97534.59
2022-08-11T07:09:10.718Z,97522.50
2022-08-11T07:12:40.226Z,97525.75
2022-08-11T07:16:10.989Z,97503.81
2022-08-11T07:18:56.236Z,97510.59
2022-08-11T07:22:02.717Z,97516.88
2022-08-11T07:25:24.170Z,97508.56
2022-08-11T07:28:22.592Z,97516.72
2022-08-11T07:30:58.523Z,97502.63
2022-08-11T07:34:06.499Z,97506.88
2022-08-11T07:36:19.159Z,97503.78
2022-08-11T07:38:52.798Z,97510.91
2022-08-11T07:41:22.254Z,97502.53
2022-08-11T07:43:52.462Z,97507.31
2022-08-11T07:46:41.817Z,97501.50
2022-08-11T07:49:29.003Z,97504.38
2022-08-11T07:52:14.946Z,97508.91
2022-08-11T07:54:42.449Z,97513.25
2022-08-11T07:57:50.116Z,97513.19
2022-08-11T08:00:37.392Z,97507.69
2022-08-11T08:03:23.890Z,97508.09
2022-08-11T08:06:28.549Z,97515.25
2022-08-11T08:09:16.283Z,97511.25
2022-08-11T08:12:03.062Z,97505.84
2022-08-11T08:14:49.108Z,97510.00
2022-08-11T08:17:34.735Z,97486.00
2022-08-11T08:20:03.850Z,97504.47
2022-08-11T08:22:38.244Z,97494.84
2022-08-11T08:25:16.060Z,97500.16
2022-08-11T08:27:43.659Z,97489.88
2022-08-11T08:30:29.602Z,97499.56
2022-08-11T08:32:57.802Z,97493.63
2022-08-11T08:35:27.297Z,97513.38
2022-08-11T08:37:58.043Z,97495.13
2022-08-11T08:40:24.828Z,97500.22
2022-08-11T08:42:58.366Z,97499.81
2022-08-11T08:45:27.392Z,97500.84
2022-08-11T08:48:16.763Z,97495.44
2022-08-11T08:51:12.903Z,97485.47
2022-08-11T08:53:52.332Z,97501.06
2022-08-11T08:56:25.129Z,97497.19
2022-08-11T08:58:52.281Z,97497.34
2022-08-11T09:01:22.328Z,97503.16
2022-08-11T09:04:05.052Z,97504.81
2022-08-11T09:06:40.305Z,97504.31
2022-08-11T09:09:12.185Z,97495.78
2022-08-11T09:11:55.188Z,97489.63
2022-08-11T09:14:50.809Z,97497.75
2022-08-11T09:17:19.471Z,97495.94
2022-08-11T09:19:56.586Z,97499.09
2022-08-11T09:22:45.612Z,97504.59
2022-08-11T09:25:31.992Z,97504.13
2022-08-11T09:27:59.225Z,97498.16
2022-08-11T09:30:26.687Z,97484.81
2022-08-11T09:33:00.387Z,97495.97
2022-08-11T09:35:33.158Z,97492.34
2022-08-11T09:38:19.542Z,97493.81
2022-08-11T09:40:52.695Z,97504.22
2022-08-11T09:43:43.560Z,97498.09
2022-08-11T09:46:10.766Z,97494.22
2022-08-11T09:48:44.611Z,97489.56
2022-08-11T09:51:12.537Z,97480.19
2022-08-11T09:53:42.347Z,97472.84
2022-08-11T09:56:47.844Z,97475.47
2022-08-11T09:59:14.438Z,97471.47
2022-08-11T10:01:47.301Z,97479.38
2022-08-11T10:04:21.343Z,97465.75
2022-08-11T10:07:12.548Z,97478.13
2022-08-11T10:09:40.912Z,97478.25
2022-08-11T10:12:14.535Z,97467.72
2022-08-11T10:15:03.390Z,97457.09
2022-08-11T10:17:33.090Z,97464.59
2022-08-11T10:20:04.782Z,97464.00
2022-08-11T10:22:51.411Z,97457.38
2022-08-11T10:25:36.831Z,97467.03
2022-08-11T10:28:28.582Z,97469.22
2022-08-11T10:31:13.781Z,97466.88
2022-08-11T10:34:00.138Z,97448.06
2022-08-11T10:36:28.690Z,97451.09
2022-08-11T10:38:57.509Z,97452.56
2022-08-11T10:42:08.437Z,97459.38
2022-08-11T10:44:40.210Z,97445.34
2022-08-11T10:47:27.077Z,97456.84
2022-08-11T10:50:13.618Z,97447.09
2022-08-11T10:52:59.449Z,97447.38
2022-08-11T10:55:45.508Z,97439.66
2022-08-11T10:58:31.471Z,97452.53
2022-08-11T11:01:00.659Z,97428.72
2022-08-11T11:03:31.019Z,97438.91
2022-08-11T11:06:45.592Z,97426.41
2022-08-11T11:09:18.002Z,97426.75
2022-08-11T11:12:13.042Z,97419.31
2022-08-11T11:15:01.059Z,97433.47
2022-08-11T11:17:51.005Z,97433.31
2022-08-11T11:20:36.016Z,97425.50
2022-08-11T11:23:16.722Z,97420.66
2022-08-11T11:26:11.270Z,97421.28
2022-08-11T11:28:54.602Z,97432.06
2022-08-11T11:31:39.363Z,97433.06
2022-08-11T11:34:18.055Z,97409.03
2022-08-11T11:36:54.238Z,97398.94
2022-08-11T11:39:23.865Z,97414.78
2022-08-11T11:41:53.212Z,97399.53
2022-08-11T11:44:22.802Z,97402.22
2022-08-11T11:46:50.964Z,97389.88
2022-08-11T11:51:53.809Z,97397.84
2022-08-11T11:54:26.676Z,97403.56
2022-08-11T11:56:55.651Z,97393.09
2022-08-11T11:59:41.354Z,97399.22
2022-08-11T12:02:11.828Z,97389.53
2022-08-11T12:04:43.126Z,97404.97
2022-08-11T12:07:29.417Z,97407.91
2022-08-11T12:09:57.782Z,97395.56
2022-08-11T12:12:43.901Z,97393.66
2022-08-11T12:15:12.067Z,97391.16
2022-08-11T12:17:39.644Z,97390.34
2022-08-11T12:20:32.155Z,97384.28
2022-08-11T12:23:15.431Z,97386.81
2022-08-11T12:26:26.425Z,97388.25
2022-08-11T12:28:50.205Z,97391.00
2022-08-11T12:31:16.901Z,97378.97
2022-08-11T12:33:44.537Z,97380.75
2022-08-11T12:36:15.780Z,97371.25
2022-08-11T12:38:51.540Z,97364.75
2022-08-11T12:41:39.491Z,97374.59
2022-08-11T12:44:29.289Z,97372.19
2022-08-11T12:46:59.706Z,97364.94
2022-08-11T12:49:49.645Z,97373.31
2022-08-11T12:52:29.834Z,97376.09
2022-08-11T12:55:06.618Z,97373.22
2022-08-11T12:57:57.546Z,97361.72
2022-08-11T13:00:44.657Z,97344.41
2022-08-11T13:03:32.248Z,97349.53
2022-08-11T13:06:02.638Z,97347.06
2022-08-11T13:08:33.200Z,97357.91
2022-08-11T13:11:20.233Z,97353.69
2022-08-11T13:13:53.470Z,97367.28
2022-08-11T13:16:28.040Z,97359.13
2022-08-11T13:18:57.458Z,97342.38
2022-08-11T13:21:24.929Z,97352.69
2022-08-11T13:24:01.388Z,97333.47
2022-08-11T13:26:43.468Z,97347.59
2022-08-11T13:29:25.471Z,97340.13
2022-08-11T13:31:54.792Z,97341.50
2022-08-11T13:34:24.243Z,97349.47
2022-08-11T13:36:53.511Z,97340.31
2022-08-11T13:39:25.831Z,97334.50
2022-08-11T13:41:56.415Z,97346.13
2022-08-11T13:44:27.109Z,97347.81
2022-08-11T13:46:57.643Z,97335.56
2022-08-11T13:49:25.144Z,97341.53
2022-08-11T13:51:52.888Z,97342.34
2022-08-11T13:54:22.740Z,97342.97
2022-08-11T13:56:54.405Z,97328.94
2022-08-11T13:59:30.053Z,97341.66
2022-08-11T14:02:21.462Z,97323.47
2022-08-11T14:05:07.357Z,97333.25
2022-08-11T14:07:39.947Z,97323.47
2022-08-11T14:10:08.482Z,97333.31
2022-08-11T14:12:55.683Z,97329.94
2022-08-11T14:15:25.467Z,97328.56
2022-08-11T14:17:56.495Z,97333.25
2022-08-11T14:20:39.151Z,97322.50
2022-08-11T14:23:11.721Z,97322.28
2022-08-11T14:26:02.539Z,97325.94
2022-08-11T14:28:37.796Z,97325.41
2022-08-11T14:31:09.419Z,97322.78
2022-08-11T14:34:00.751Z,97324.25
2022-08-11T14:36:26.479Z,97325.34
2022-08-11T14:38:54.928Z,97311.75
2022-08-11T14:42:10.634Z,97323.00
2022-08-11T14:44:50.316Z,97320.84
2022-08-11T14:47:23.707Z,97315.69
2022-08-11T14:49:58.216Z,97321.19
2022-08-11T14:52:38.441Z,97325.88
2022-08-11T14:55:25.104Z,97322.72
2022-08-11T14:57:56.228Z,97317.94
2022-08-11T15:00:23.899Z,97327.50
2022-08-11T15:03:10.042Z,97320.69
2022-08-11T15:05:58.618Z,97321.38
2022-08-11T15:08:56.764Z,97322.84
2022-08-11T15:11:46.906Z,97319.50
2022-08-11T15:14:14.174Z,97321.75
2022-08-11T15:17:01.608Z,97316.56
2022-08-11T15:19:40.558Z,97319.69
2022-08-11T15:22:29.250Z,97309.09
2022-08-11T15:24:58.652Z,97310.13
2022-08-11T15:27:44.701Z,97316.75
2022-08-11T15:30:32.940Z,97312.38
2022-08-11T15:33:23.478Z,97319.88
2022-08-11T15:36:10.596Z,97310.66
2022-08-11T15:38:44.359Z,97311.91
2022-08-11T15:41:33.861Z,97303.75
2022-08-11T15:44:38.998Z,97298.88
2022-08-11T15:47:14.355Z,97309.44
2022-08-11T15:50:10.672Z,97311.78
2022-08-11T15:52:34.626Z,97294.31
2022-08-11T15:55:08.832Z,97299.94
2022-08-11T15:57:55.861Z,97292.50
2022-08-11T16:00:41.803Z,97289.06
2022-08-11T16:03:54.421Z,97291.22
2022-08-11T16:06:16.378Z,97285.09
2022-08-11T16:08:44.892Z,97284.94
2022-08-11T16:11:13.352Z,97284.75
2022-08-11T16:13:40.967Z,97285.78
2022-08-11T16:16:16.484Z,97284.94
2022-08-11T16:18:52.475Z,97288.31
2022-08-11T16:21:34.201Z,97280.19
2022-08-11T16:24:05.901Z,97280.16
2022-08-11T16:27:11.373Z,97274.53
2022-08-11T16:29:23.639Z,97277.69
2022-08-11T16:32:11.923Z,97279.47
2022-08-11T16:34:58.021Z,97277.84
2022-08-11T16:37:44.287Z,97274.22
2022-08-11T16:40:12.092Z,97276.16
2022-08-11T16:43:04.530Z,97281.59
2022-08-11T16:45:59.007Z,97276.16
2022-08-11T16:48:37.541Z,97274.09
2022-08-11T16:51:07.128Z,97267.06
2022-08-11T16:53:59.648Z,97278.94
2022-08-11T16:56:27.319Z,97277.47
2022-08-11T16:59:17.081Z,97278.97
2022-08-11T17:02:34.936Z,97276.00
2022-08-11T17:05:25.498Z,97264.81
2022-08-11T17:08:13.250Z,97270.19
2022-08-11T17:11:09.611Z,97274.28
2022-08-11T17:13:42.196Z,97270.72
2022-08-11T17:16:12.930Z,97273.16
2022-08-11T17:18:51.392Z,97276.69
2022-08-11T17:21:33.873Z,97271.16
2022-08-11T17:24:09.055Z,97269.03
2022-08-11T17:26:56.971Z,97271.31
2022-08-11T17:29:34.443Z,97275.94
2022-08-11T17:32:56.069Z,97265.53
2022-08-11T17:35:34.208Z,97265.28
2022-08-11T17:38:06.746Z,97268.50
2022-08-11T17:40:38.838Z,97258.44
2022-08-11T17:43:27.487Z,97264.03
2022-08-11T17:46:14.235Z,97259.66
2022-08-11T17:48:47.990Z,97254.50
2022-08-11T17:51:38.614Z,97263.84
2022-08-11T17:54:25.788Z,97261.66
2022-08-11T17:57:20.508Z,97265.13
2022-08-11T17:59:52.785Z,97277.03
2022-08-11T18:02:47.764Z,97276.44
2022-08-11T18:05:18.281Z,97273.28
2022-08-11T18:08:04.368Z,97275.69
2022-08-11T18:10:52.823Z,97268.72
2022-08-11T18:13:42.141Z,97275.19
2022-08-11T18:16:30.413Z,97280.00
2022-08-11T18:19:15.895Z,97279.94
2022-08-11T18:22:15.120Z,97286.84
2022-08-11T18:25:20.386Z,97288.66
2022-08-11T18:28:07.424Z,97287.03
2022-08-11T18:31:03.805Z,97292.59
2022-08-11T18:34:07.151Z,97290.78
2022-08-11T18:36:56.927Z,97300.28
2022-08-11T18:39:43.366Z,97297.69
2022-08-11T18:42:42.094Z,97298.66
2022-08-11T18:45:31.071Z,97306.53
2022-08-11T18:48:34.004Z,97308.13
2022-08-11T18:51:31.717Z,97302.91
2022-08-11T18:54:26.939Z,97294.75
2022-08-11T18:57:14.938Z,97300.03
2022-08-11T19:00:02.281Z,97301.94
2022-08-11T19:02:50.231Z,97304.78
2022-08-11T19:06:35.621Z,97308.31
2022-08-11T19:08:47.311Z,97311.81
2022-08-11T19:11:33.850Z,97309.34
2022-08-11T19:14:22.673Z,97316.94
2022-08-11T19:17:09.443Z,97321.13
2022-08-11T19:19:58.775Z,97329.22
2022-08-11T19:22:46.167Z,97328.53
2022-08-11T19:25:32.465Z,97323.84
2022-08-11T19:28:18.775Z,97330.06
2022-08-11T19:31:04.736Z,97331.72
2022-08-11T19:34:03.063Z,97333.88
2022-08-11T19:36:56.804Z,97335.06
2022-08-11T19:39:43.663Z,97334.88
2022-08-11T19:42:31.005Z,97332.13
2022-08-11T19:45:18.728Z,97344.78
2022-08-11T19:48:30.722Z,97342.50
2022-08-11T19:51:12.547Z,97345.66
2022-08-11T19:53:58.409Z,97352.91
2022-08-11T19:56:44.714Z,97343.84
2022-08-11T19:59:29.834Z,97345.50
2022-08-11T20:02:15.300Z,97350.94
2022-08-11T20:05:00.961Z,97351.81
2022-08-11T20:07:47.625Z,97357.31
2022-08-11T20:10:38.294Z,97353.41
2022-08-11T20:13:27.224Z,97350.41
2022-08-11T20:16:14.129Z,97352.91
2022-08-11T20:19:00.727Z,97351.91
2022-08-11T20:21:46.677Z,97350.72
2022-08-11T20:24:33.836Z,97353.00
2022-08-11T20:27:24.510Z,97349.41
2022-08-11T20:30:12.469Z,97353.06
2022-08-11T20:32:58.981Z,97353.97
2022-08-11T20:35:45.383Z,97350.88
2022-08-11T20:38:33.843Z,97347.06
2022-08-11T20:41:20.746Z,97350.63
2022-08-11T20:44:09.567Z,97354.91
2022-08-11T20:46:57.622Z,97351.47
2022-08-11T20:49:53.613Z,97359.13
2022-08-11T20:52:48.410Z,97363.03
2022-08-11T20:55:51.598Z,97359.22
2022-08-11T20:59:13.485Z,97360.63
2022-08-11T21:01:45.461Z,97360.59
2022-08-11T21:04:30.759Z,97370.31
2022-08-11T21:07:28.329Z,97370.13
2022-08-11T21:10:23.480Z,97362.31
2022-08-11T21:13:24.323Z,97358.41
2022-08-11T21:16:26.507Z,97357.59
2022-08-11T21:20:00.093Z,97356.88
2022-08-11T21:22:59.011Z,97358.69
2022-08-11T21:26:03.341Z,97354.66
2022-08-11T21:28:50.260Z,97353.50
2022-08-11T21:31:37.183Z,97356.75
2022-08-11T21:34:25.067Z,97367.09
2022-08-11T21:37:11.987Z,97363.41
2022-08-11T21:39:59.042Z,97370.44
2022-08-11T21:42:46.172Z,97364.81
2022-08-11T21:45:33.080Z,97366.59
2022-08-11T21:48:19.991Z,97364.16
2022-08-11T21:51:05.260Z,97372.66
2022-08-11T21:53:51.458Z,97370.53
2022-08-11T21:56:37.440Z,97369.84
2022-08-11T21:59:24.169Z,97367.31
2022-08-11T22:02:12.861Z,97357.06
2022-08-11T22:04:59.760Z,97363.16
2022-08-11T22:07:45.482Z,97366.94
2022-08-11T22:10:41.076Z,97371.91
2022-08-11T22:13:32.212Z,97376.16
2022-08-11T22:16:18.485Z,97375.13
2022-08-11T22:19:05.783Z,97369.25
2022-08-11T22:22:02.704Z,97369.50
2022-08-11T22:24:52.727Z,97364.06
2022-08-11T22:27:39.031Z,97367.94
2022-08-11T22:30:26.368Z,97369.38
2022-08-11T22:33:12.726Z,97375.41
2022-08-11T22:36:02.021Z,97366.22
2022-08-11T22:38:47.962Z,97367.56
2022-08-11T22:41:33.178Z,97363.53
2022-08-11T22:44:18.562Z,97365.91
2022-08-11T22:47:04.330Z,97363.84
2022-08-11T22:49:58.268Z,97369.56
2022-08-11T22:52:45.820Z,97356.44
2022-08-11T22:55:31.833Z,97364.63
2022-08-11T22:58:17.619Z,97367.13
2022-08-11T23:01:03.682Z,97366.13
2022-08-11T23:03:51.085Z,97360.59
2022-08-11T23:06:37.948Z,97357.72
2022-08-11T23:09:24.271Z,97360.34
2022-08-11T23:12:10.706Z,97353.06
2022-08-11T23:14:58.412Z,97351.72
2022-08-11T23:17:45.103Z,97348.28
2022-08-11T23:20:47.314Z,97353.25
2022-08-11T23:23:38.965Z,97347.69
2022-08-11T23:26:24.821Z,97347.53
2022-08-11T23:29:11.540Z,97342.53
2022-08-11T23:31:57.553Z,97338.09
2022-08-11T23:35:04.062Z,97345.59
2022-08-11T23:37:55.516Z,97349.09
2022-08-11T23:40:44.901Z,97351.75
2022-08-11T23:43:38.195Z,97342.09
2022-08-11T23:46:24.144Z,97347.66
2022-08-11T23:49:20.748Z,97348.63
2022-08-11T23:52:07.025Z,97345.38
2022-08-11T23:54:55.326Z,97342.84
2022-08-11T23:57:47.945Z,97339.00
